LPPD/PDL METAR and TAF weather

Enter ICAO airport designator
Station Type Date Time Source
LPPD METAR 2021/10/20 07:00 UTC NOAA

LPPD 200700Z 34003KT 310V020 9999 FEW025 18/15 Q1025


Station Type Date Time Source
LPPD Decoded METAR 2021/10/20 07:00 UTC NOAA

Ponta Delgada / Nordela Acores , Portugal (LPPD) 37-44N 025-42W 72M
Oct 20, 2021 - 03:00 AM EDT / 2021.10.20 0700 UTC
Wind: from the NNW (340 degrees) at 3 MPH (3 KT) (direction variable):0
Visibility: greater than 7 mile(s):0
Sky conditions: mostly clear
Temperature: 64 F (18 C)
Dew Point: 59 F (15 C)
Relative Humidity: 82%
Pressure (altimeter): 30.27 in. Hg (1025 hPa)
ob: LPPD 200700Z 34003KT 310V020 9999 FEW025 18/15 Q1025
cycle: 7

Station Type Date Time Source
LPPD TAF 2021/10/20 06:18 UTC NOAA

TAF LPPD 200500Z 2006/2106 VRB05KT 9999 SCT025

Example: see airport list